Terminal Aerodrome Forecast
Issued by NWS Tiyan, Guam

Home | Current Version | Previous Version | Text Only | Print | Product List | Glossary On
Versions: 1 2 3 4 5 6 7 8 9 10 11 12 13 14 15
000
FTPQ31 PGUM 252322
TAFGUM
TAF
PGUM 252322Z 2600/2706 07009KT P6SM VCSH FEW018 SCT060 BKN140
     FM260200 11010KT P6SM VCSH FEW020 SCT050 BKN120
     FM260800 09008KT P6SM VCSH SCT018 BKN120=

USA.gov is the U.S. government's official web portal to all federal, state and local government web resources and services.